createdAt,value
2022-07-29T00:01:01.416Z,16.70
2022-07-29T00:03:28.455Z,16.70
2022-07-29T00:05:56.261Z,16.70
2022-07-29T00:08:23.239Z,16.70
2022-07-29T00:10:51.003Z,16.70
2022-07-29T00:13:18.026Z,16.70
2022-07-29T00:15:58.712Z,16.70
2022-07-29T00:18:32.692Z,16.70
2022-07-29T00:20:59.587Z,16.70
2022-07-29T00:23:26.513Z,16.80
2022-07-29T00:25:53.353Z,16.80
2022-07-29T00:28:20.265Z,16.90
2022-07-29T00:30:47.128Z,17.00
2022-07-29T00:33:14.035Z,17.00
2022-07-29T00:35:47.092Z,17.00
2022-07-29T00:38:15.225Z,17.10
2022-07-29T00:40:43.282Z,17.10
2022-07-29T00:43:12.048Z,17.10
2022-07-29T00:45:38.888Z,17.10
2022-07-29T00:48:06.356Z,17.10
2022-07-29T00:50:33.371Z,17.20
2022-07-29T00:53:00.311Z,17.20
2022-07-29T00:55:27.221Z,17.20
2022-07-29T00:57:54.199Z,17.20
2022-07-29T01:00:25.844Z,17.20
2022-07-29T01:02:52.860Z,17.30
2022-07-29T01:05:23.478Z,17.30
2022-07-29T01:07:53.814Z,17.30
2022-07-29T01:10:21.113Z,17.30
2022-07-29T01:12:49.058Z,17.30
2022-07-29T01:15:15.976Z,17.30
2022-07-29T01:17:57.621Z,17.30
2022-07-29T01:20:46.511Z,17.30
2022-07-29T01:23:37.842Z,17.30
2022-07-29T01:26:04.754Z,17.30
2022-07-29T01:28:59.870Z,17.30
2022-07-29T01:31:33.034Z,17.20
2022-07-29T01:34:05.271Z,17.20
2022-07-29T01:36:46.593Z,17.20
2022-07-29T01:39:33.309Z,17.20
2022-07-29T01:42:03.349Z,17.10
2022-07-29T01:44:35.597Z,17.10
2022-07-29T01:47:06.496Z,17.10
2022-07-29T01:49:36.714Z,17.00
2022-07-29T01:52:35.964Z,17.00
2022-07-29T01:55:05.903Z,16.90
2022-07-29T01:57:34.430Z,16.90
2022-07-29T02:00:01.318Z,16.80
2022-07-29T02:02:28.974Z,16.80
2022-07-29T02:04:56.488Z,16.70
2022-07-29T02:07:23.551Z,16.60
2022-07-29T02:09:51.533Z,16.50
2022-07-29T02:12:19.258Z,16.50
2022-07-29T02:14:49.080Z,16.40
2022-07-29T02:17:19.392Z,16.30
2022-07-29T02:19:46.324Z,16.20
2022-07-29T02:22:13.182Z,16.10
2022-07-29T02:24:41.284Z,16.00
2022-07-29T02:27:08.328Z,16.00
2022-07-29T02:29:35.192Z,16.00
2022-07-29T02:32:02.146Z,15.90
2022-07-29T02:34:29.208Z,15.80
2022-07-29T02:36:56.193Z,15.70
2022-07-29T02:39:23.396Z,15.70
2022-07-29T02:41:52.802Z,15.60
2022-07-29T02:44:22.099Z,15.60
2022-07-29T02:46:54.310Z,15.50
2022-07-29T02:49:33.369Z,15.40
2022-07-29T02:52:02.727Z,15.40
2022-07-29T02:54:39.823Z,15.30
2022-07-29T02:57:15.974Z,15.30
2022-07-29T02:59:43.324Z,15.20
2022-07-29T03:02:10.238Z,15.20
2022-07-29T03:04:37.321Z,15.20
2022-07-29T03:07:04.206Z,15.10
2022-07-29T03:09:31.198Z,15.00
2022-07-29T03:11:58.074Z,15.00
2022-07-29T03:14:25.099Z,15.00
2022-07-29T03:16:52.165Z,14.90
2022-07-29T03:19:19.611Z,14.90
2022-07-29T03:21:46.641Z,14.80
2022-07-29T03:24:32.993Z,14.80
2022-07-29T03:26:59.932Z,14.80
2022-07-29T03:29:33.281Z,14.70
2022-07-29T03:32:08.343Z,14.70
2022-07-29T03:34:36.789Z,14.70
2022-07-29T03:37:03.672Z,14.60
2022-07-29T03:39:32.520Z,14.60
2022-07-29T03:41:59.436Z,14.60
2022-07-29T03:44:26.411Z,14.60
2022-07-29T03:46:53.328Z,14.60
2022-07-29T03:49:20.304Z,14.60
2022-07-29T03:51:47.240Z,14.50
2022-07-29T03:54:14.365Z,14.50
2022-07-29T03:56:43.323Z,14.50
2022-07-29T03:59:10.254Z,14.50
2022-07-29T04:01:37.262Z,14.50
2022-07-29T04:04:05.629Z,14.40
2022-07-29T04:06:45.764Z,14.40
2022-07-29T04:09:15.657Z,14.30
2022-07-29T04:12:01.684Z,14.30
2022-07-29T04:14:29.828Z,14.30
2022-07-29T04:16:56.669Z,14.30
2022-07-29T04:19:23.661Z,14.30
2022-07-29T04:21:50.604Z,14.30
2022-07-29T04:24:18.014Z,14.30
2022-07-29T04:26:46.894Z,14.30
2022-07-29T04:29:15.205Z,14.30
2022-07-29T04:31:42.628Z,14.30
2022-07-29T04:34:10.011Z,14.40
2022-07-29T04:36:37.147Z,14.50
2022-07-29T04:39:04.445Z,14.50
2022-07-29T04:41:33.376Z,14.50
2022-07-29T04:44:05.864Z,14.60
2022-07-29T04:46:34.707Z,14.60
2022-07-29T04:49:01.754Z,14.60
2022-07-29T04:51:28.774Z,14.70
2022-07-29T04:53:55.649Z,14.70
2022-07-29T04:56:22.601Z,14.80
2022-07-29T04:58:49.501Z,14.80
2022-07-29T05:01:16.534Z,14.90
2022-07-29T05:03:43.470Z,14.90
2022-07-29T05:06:10.346Z,15.00
2022-07-29T05:08:37.209Z,15.00
2022-07-29T05:11:12.409Z,15.10
2022-07-29T05:13:45.482Z,15.10
2022-07-29T05:16:14.110Z,15.10
2022-07-29T05:18:41.395Z,15.20
2022-07-29T05:21:08.307Z,15.20
2022-07-29T05:23:35.178Z,15.30
2022-07-29T05:26:02.032Z,15.40
2022-07-29T05:28:28.897Z,15.50
2022-07-29T05:30:55.997Z,15.60
2022-07-29T05:33:35.464Z,15.70
2022-07-29T05:36:07.524Z,15.80
2022-07-29T05:38:35.307Z,15.90
2022-07-29T05:41:02.265Z,16.00
2022-07-29T05:43:29.517Z,16.10
2022-07-29T05:45:56.517Z,16.20
2022-07-29T05:48:23.453Z,16.40
2022-07-29T05:50:50.820Z,16.50
2022-07-29T05:53:19.608Z,16.60
2022-07-29T05:55:51.066Z,16.70
2022-07-29T05:58:18.009Z,16.90
2022-07-29T06:00:44.944Z,17.00
2022-07-29T06:03:12.325Z,17.10
2022-07-29T06:05:39.245Z,17.20
2022-07-29T06:08:09.404Z,17.30
2022-07-29T06:10:36.445Z,17.40
2022-07-29T06:13:03.672Z,17.60
2022-07-29T06:15:30.579Z,17.70
2022-07-29T06:18:00.113Z,17.80
2022-07-29T06:20:31.758Z,17.90
2022-07-29T06:22:59.083Z,18.00
2022-07-29T06:25:26.213Z,18.10
2022-07-29T06:27:53.429Z,18.30
2022-07-29T06:30:20.401Z,18.40
2022-07-29T06:32:48.046Z,18.40
2022-07-29T06:35:40.937Z,18.60
2022-07-29T06:38:02.952Z,18.70
2022-07-29T06:40:54.190Z,18.90
2022-07-29T06:43:21.176Z,18.90
2022-07-29T06:45:49.707Z,19.00
2022-07-29T06:48:16.618Z,19.10
2022-07-29T06:50:43.563Z,19.10
2022-07-29T06:53:10.437Z,19.20
2022-07-29T06:55:38.258Z,19.30
2022-07-29T06:58:05.203Z,19.40
2022-07-29T07:00:32.092Z,19.50
2022-07-29T07:02:58.974Z,19.60
2022-07-29T07:05:25.883Z,19.70
2022-07-29T07:07:52.782Z,19.80
2022-07-29T07:10:19.759Z,19.80
2022-07-29T07:12:46.714Z,19.90
2022-07-29T07:15:13.570Z,19.90
2022-07-29T07:17:40.563Z,19.90
2022-07-29T07:20:08.083Z,19.90
2022-07-29T07:22:38.885Z,19.80
2022-07-29T07:25:06.616Z,19.80
2022-07-29T07:27:33.465Z,19.70
2022-07-29T07:30:00.380Z,19.60
2022-07-29T07:32:27.542Z,19.50
2022-07-29T07:34:54.733Z,19.40
2022-07-29T07:37:21.698Z,19.30
2022-07-29T07:39:48.584Z,19.30
2022-07-29T07:42:15.529Z,19.30
2022-07-29T07:45:10.976Z,19.30
2022-07-29T07:47:29.424Z,19.30
2022-07-29T07:49:56.363Z,19.30
2022-07-29T07:52:23.302Z,19.30
2022-07-29T07:54:50.385Z,19.30
2022-07-29T07:57:17.313Z,19.20
2022-07-29T07:59:44.193Z,19.30
2022-07-29T08:02:11.306Z,19.30
2022-07-29T08:04:41.252Z,19.30
2022-07-29T08:07:08.859Z,19.40
2022-07-29T08:09:35.967Z,19.40
2022-07-29T08:12:04.681Z,19.50
2022-07-29T08:14:31.870Z,19.60
2022-07-29T08:16:58.826Z,19.80
2022-07-29T08:19:25.789Z,20.00
2022-07-29T08:21:54.598Z,20.20
2022-07-29T08:24:40.890Z,20.40
2022-07-29T08:27:26.900Z,20.40
2022-07-29T08:29:56.782Z,20.50
2022-07-29T08:32:50.750Z,20.60
2022-07-29T08:35:10.754Z,20.60
2022-07-29T08:37:37.900Z,20.60
2022-07-29T08:40:05.323Z,20.60
2022-07-29T08:42:32.171Z,20.70
2022-07-29T08:44:59.468Z,20.70
2022-07-29T08:47:27.400Z,20.80
2022-07-29T08:49:54.281Z,20.90
2022-07-29T08:52:21.224Z,20.90
2022-07-29T08:54:48.156Z,21.00
2022-07-29T08:57:15.335Z,21.00
2022-07-29T08:59:43.053Z,21.10
2022-07-29T09:02:22.634Z,21.20
2022-07-29T09:04:49.765Z,21.40
2022-07-29T09:07:17.778Z,21.40
2022-07-29T09:09:44.926Z,21.60
2022-07-29T09:12:29.477Z,21.60
2022-07-29T09:14:57.466Z,21.70
2022-07-29T09:17:46.403Z,21.80
2022-07-29T09:20:15.738Z,21.90
2022-07-29T09:22:42.665Z,22.10
2022-07-29T09:25:09.745Z,22.10
2022-07-29T09:27:37.010Z,22.30
2022-07-29T09:30:13.766Z,22.30
2022-07-29T09:32:59.234Z,22.40
2022-07-29T09:35:26.577Z,22.50
2022-07-29T09:37:53.442Z,22.70
2022-07-29T09:40:28.192Z,22.80
2022-07-29T09:42:58.085Z,22.80
2022-07-29T09:45:32.155Z,22.80
2022-07-29T09:48:04.047Z,23.00
2022-07-29T09:50:41.113Z,23.10
2022-07-29T09:53:10.264Z,23.20
2022-07-29T09:55:50.769Z,23.40
2022-07-29T09:58:20.070Z,23.50
2022-07-29T10:00:47.397Z,23.70
2022-07-29T10:03:15.179Z,23.70
2022-07-29T10:05:43.073Z,23.90
2022-07-29T10:08:10.670Z,24.00
2022-07-29T10:10:39.217Z,24.10
2022-07-29T10:13:13.423Z,24.30
2022-07-29T10:15:45.105Z,24.50
2022-07-29T10:18:12.871Z,24.60
2022-07-29T10:20:40.026Z,24.80
2022-07-29T10:23:07.140Z,25.00
2022-07-29T10:25:34.068Z,25.10
2022-07-29T10:28:00.986Z,25.30
2022-07-29T10:30:28.066Z,25.40
2022-07-29T10:33:30.887Z,25.60
2022-07-29T10:36:21.889Z,25.80
2022-07-29T10:38:50.294Z,26.00
2022-07-29T10:41:44.697Z,26.30
2022-07-29T10:44:23.033Z,26.40
2022-07-29T10:46:51.611Z,26.50
2022-07-29T10:49:25.050Z,26.70
2022-07-29T10:52:08.950Z,26.80
2022-07-29T10:54:43.724Z,26.80
2022-07-29T10:57:53.285Z,26.90
2022-07-29T11:00:16.926Z,26.90
2022-07-29T11:02:45.458Z,27.00
2022-07-29T11:05:14.475Z,27.30
2022-07-29T11:08:19.543Z,27.90
2022-07-29T11:10:50.663Z,28.70
2022-07-29T11:13:47.282Z,29.50
2022-07-29T11:16:16.621Z,30.50
2022-07-29T11:19:11.337Z,31.50
2022-07-29T11:21:54.309Z,32.40
2022-07-29T11:24:30.478Z,33.20
2022-07-29T11:27:14.675Z,34.00
2022-07-29T11:29:58.680Z,34.80
2022-07-29T11:32:37.784Z,35.60
2022-07-29T11:35:37.099Z,36.50
2022-07-29T11:38:27.847Z,37.40
2022-07-29T11:41:27.301Z,38.40
2022-07-29T11:44:01.527Z,39.10
2022-07-29T11:46:48.263Z,39.50
2022-07-29T11:49:31.730Z,39.90
2022-07-29T11:52:02.566Z,40.50
2022-07-29T11:54:52.352Z,41.10
2022-07-29T11:57:21.880Z,41.60
2022-07-29T11:59:48.968Z,42.10
2022-07-29T12:05:10.454Z,42.90
2022-07-29T12:07:38.751Z,43.20
2022-07-29T12:10:06.592Z,43.60
2022-07-29T12:12:34.627Z,43.90
2022-07-29T12:15:15.886Z,44.20
2022-07-29T12:17:42.932Z,44.50
2022-07-29T12:20:10.052Z,44.70
2022-07-29T12:22:41.907Z,44.90
2022-07-29T12:25:32.653Z,45.30
2022-07-29T12:28:04.811Z,45.30
2022-07-29T12:30:49.361Z,43.80
2022-07-29T12:33:20.302Z,41.70
2022-07-29T12:36:03.533Z,40.10
2022-07-29T12:38:37.304Z,39.00
2022-07-29T12:41:04.912Z,39.00
2022-07-29T12:43:32.137Z,40.10
2022-07-29T12:45:59.087Z,41.60
2022-07-29T12:48:42.853Z,42.80
2022-07-29T12:51:10.867Z,42.30
2022-07-29T12:53:38.121Z,42.30
2022-07-29T12:56:20.651Z,41.60
2022-07-29T12:58:52.715Z,40.40
2022-07-29T13:01:21.050Z,38.80
2022-07-29T13:03:59.824Z,37.50
2022-07-29T13:06:51.002Z,36.20
2022-07-29T13:09:19.696Z,35.20
2022-07-29T13:11:49.104Z,35.60
2022-07-29T13:14:32.715Z,37.10
2022-07-29T13:17:07.090Z,38.80
2022-07-29T13:19:35.660Z,40.40
2022-07-29T13:22:02.542Z,41.80
2022-07-29T13:24:29.573Z,43.00
2022-07-29T13:26:57.045Z,44.10
2022-07-29T13:29:25.766Z,45.10
2022-07-29T13:31:56.282Z,46.00
2022-07-29T13:34:25.181Z,46.40
2022-07-29T13:36:52.163Z,45.50
2022-07-29T13:39:19.107Z,45.00
2022-07-29T13:41:46.075Z,44.30
2022-07-29T13:44:12.978Z,44.70
2022-07-29T13:46:40.205Z,45.40
2022-07-29T13:49:07.266Z,46.20
2022-07-29T13:51:34.311Z,47.10
2022-07-29T13:54:01.179Z,47.90
2022-07-29T13:56:28.202Z,48.70
2022-07-29T13:58:55.107Z,49.40
2022-07-29T14:01:22.144Z,49.90
2022-07-29T14:03:49.048Z,49.50
2022-07-29T14:06:15.940Z,48.50
2022-07-29T14:08:45.174Z,48.20
2022-07-29T14:11:12.158Z,48.20
2022-07-29T14:13:39.043Z,48.40
2022-07-29T14:16:07.979Z,48.00
2022-07-29T14:18:35.044Z,48.00
2022-07-29T14:21:01.997Z,47.10
2022-07-29T14:23:28.888Z,46.10
2022-07-29T14:25:55.846Z,46.20
2022-07-29T14:28:22.941Z,47.00
2022-07-29T14:30:49.854Z,48.00
2022-07-29T14:33:16.748Z,48.60
2022-07-29T14:35:43.644Z,48.90
2022-07-29T14:38:10.505Z,48.70
2022-07-29T14:40:37.590Z,48.90
2022-07-29T14:43:04.761Z,48.30
2022-07-29T14:45:32.524Z,46.70
2022-07-29T14:48:00.811Z,44.50
2022-07-29T14:50:31.891Z,42.10
2022-07-29T14:52:59.895Z,40.00
2022-07-29T14:55:26.912Z,38.50
2022-07-29T14:58:03.060Z,37.70
2022-07-29T15:00:34.874Z,36.90
2022-07-29T15:03:02.962Z,36.20
2022-07-29T15:05:31.062Z,35.70
2022-07-29T15:07:58.264Z,35.40
2022-07-29T15:10:27.137Z,35.30
2022-07-29T15:12:54.798Z,35.40
2022-07-29T15:15:21.886Z,36.00
2022-07-29T15:17:48.882Z,37.80
2022-07-29T15:20:15.763Z,38.30
2022-07-29T15:22:43.907Z,38.00
2022-07-29T15:25:10.842Z,37.50
2022-07-29T15:27:37.748Z,36.80
2022-07-29T15:30:04.938Z,36.00
2022-07-29T15:32:31.830Z,35.60
2022-07-29T15:34:58.712Z,36.60
2022-07-29T15:37:25.844Z,38.50
2022-07-29T15:39:55.952Z,39.70
2022-07-29T15:42:25.300Z,39.70
2022-07-29T15:44:52.198Z,39.00
2022-07-29T15:47:19.086Z,38.00
2022-07-29T15:49:47.190Z,36.90
2022-07-29T15:52:26.146Z,36.00
2022-07-29T15:54:54.635Z,35.10
2022-07-29T15:57:21.470Z,34.40
2022-07-29T15:59:48.418Z,34.30
2022-07-29T16:02:15.617Z,34.00
2022-07-29T16:04:42.540Z,33.40
2022-07-29T16:07:09.477Z,32.80
2022-07-29T16:09:36.432Z,32.10
2022-07-29T16:12:05.226Z,31.60
2022-07-29T16:14:42.901Z,31.10
2022-07-29T16:17:09.823Z,30.60
2022-07-29T16:19:41.861Z,30.20
2022-07-29T16:22:09.152Z,30.00
2022-07-29T16:24:36.099Z,29.80
2022-07-29T16:27:02.976Z,29.70
2022-07-29T16:29:29.868Z,29.70
2022-07-29T16:31:57.073Z,29.70
2022-07-29T16:34:24.223Z,29.80
2022-07-29T16:36:51.119Z,29.90
2022-07-29T16:39:18.009Z,30.20
2022-07-29T16:41:44.864Z,31.00
2022-07-29T16:44:11.845Z,31.50
2022-07-29T16:46:39.069Z,31.80
2022-07-29T16:49:08.468Z,32.20
2022-07-29T16:51:35.419Z,32.60
2022-07-29T16:54:02.389Z,32.60
2022-07-29T16:56:29.280Z,32.60
2022-07-29T16:58:58.108Z,33.20
2022-07-29T17:01:25.096Z,34.10
2022-07-29T17:04:07.104Z,34.40
2022-07-29T17:06:35.354Z,34.20
2022-07-29T17:09:04.003Z,33.70
2022-07-29T17:11:53.333Z,33.10
2022-07-29T17:14:18.088Z,32.60
2022-07-29T17:16:51.706Z,32.00
2022-07-29T17:19:28.790Z,31.50
2022-07-29T17:22:02.340Z,30.90
2022-07-29T17:24:34.020Z,30.40
2022-07-29T17:27:01.272Z,29.90
2022-07-29T17:29:28.269Z,29.50
2022-07-29T17:31:55.169Z,29.10
2022-07-29T17:34:22.022Z,28.80
2022-07-29T17:36:48.892Z,28.40
2022-07-29T17:39:15.834Z,28.20
2022-07-29T17:41:44.874Z,27.90
2022-07-29T17:44:11.773Z,27.70
2022-07-29T17:46:38.667Z,27.50
2022-07-29T17:49:06.033Z,27.40
2022-07-29T17:51:32.960Z,27.20
2022-07-29T17:53:59.897Z,27.10
2022-07-29T17:56:26.839Z,27.00
2022-07-29T17:58:54.166Z,26.80
2022-07-29T18:01:21.287Z,26.80
2022-07-29T18:03:48.297Z,26.70
2022-07-29T18:06:15.156Z,26.70
2022-07-29T18:08:42.157Z,26.70
2022-07-29T18:11:09.086Z,26.70
2022-07-29T18:13:41.888Z,26.60
2022-07-29T18:16:09.344Z,26.60
2022-07-29T18:18:36.271Z,26.60
2022-07-29T18:21:03.247Z,26.50
2022-07-29T18:23:30.226Z,26.40
2022-07-29T18:25:57.108Z,26.40
2022-07-29T18:28:24.027Z,26.30
2022-07-29T18:30:51.142Z,26.20
2022-07-29T18:33:21.760Z,26.20
2022-07-29T18:35:49.885Z,26.10
2022-07-29T18:38:17.021Z,26.00
2022-07-29T18:40:45.578Z,26.00
2022-07-29T18:43:12.960Z,25.90
2022-07-29T18:45:39.950Z,25.80
2022-07-29T18:48:11.914Z,25.60
2022-07-29T18:50:41.173Z,25.40
2022-07-29T18:53:08.148Z,25.20
2022-07-29T18:55:35.108Z,24.90
2022-07-29T18:58:02.099Z,24.80
2022-07-29T19:00:30.498Z,24.60
2022-07-29T19:02:57.489Z,24.50
2022-07-29T19:05:24.684Z,24.30
2022-07-29T19:07:51.629Z,24.20
2022-07-29T19:10:18.600Z,24.00
2022-07-29T19:12:45.576Z,23.90
2022-07-29T19:15:12.965Z,23.80
2022-07-29T19:17:48.776Z,23.70
2022-07-29T19:20:15.903Z,23.50
2022-07-29T19:22:43.318Z,23.40
2022-07-29T19:25:10.545Z,23.30
2022-07-29T19:27:37.480Z,23.20
2022-07-29T19:30:07.009Z,23.10
2022-07-29T19:32:33.978Z,23.00
2022-07-29T19:35:19.759Z,22.90
2022-07-29T19:37:46.776Z,22.80
2022-07-29T19:40:13.800Z,22.70
2022-07-29T19:42:40.849Z,22.70
2022-07-29T19:45:08.409Z,22.50
2022-07-29T19:47:35.514Z,22.50
2022-07-29T19:50:02.580Z,22.40
2022-07-29T19:52:29.549Z,22.30
2022-07-29T19:54:56.488Z,22.20
2022-07-29T19:57:24.136Z,22.20
2022-07-29T19:59:51.210Z,22.10
2022-07-29T20:02:18.438Z,22.00
2022-07-29T20:04:45.543Z,21.90
2022-07-29T20:07:13.561Z,21.90
2022-07-29T20:09:40.947Z,21.80
2022-07-29T20:12:11.002Z,21.80
2022-07-29T20:14:38.039Z,21.70
2022-07-29T20:17:05.147Z,21.70
2022-07-29T20:19:32.899Z,21.60
2022-07-29T20:22:00.264Z,21.60
2022-07-29T20:24:27.281Z,21.50
2022-07-29T20:26:54.199Z,21.50
2022-07-29T20:29:21.180Z,21.40
2022-07-29T20:31:53.492Z,21.40
2022-07-29T20:34:23.525Z,21.30
2022-07-29T20:36:50.402Z,21.30
2022-07-29T20:39:17.317Z,21.20
2022-07-29T20:41:44.475Z,21.10
2022-07-29T20:44:11.503Z,21.00
2022-07-29T20:46:39.432Z,21.00
2022-07-29T20:49:06.690Z,20.90
2022-07-29T20:51:43.547Z,20.90
2022-07-29T20:54:11.349Z,20.80
2022-07-29T20:56:38.519Z,20.80
2022-07-29T20:59:05.462Z,20.70
2022-07-29T21:01:32.460Z,20.60
2022-07-29T21:04:00.255Z,20.60
2022-07-29T21:06:27.128Z,20.60
2022-07-29T21:08:55.764Z,20.50
2022-07-29T21:11:44.158Z,20.50
2022-07-29T21:14:09.611Z,20.40
2022-07-29T21:16:36.639Z,20.40
2022-07-29T21:19:03.525Z,20.30
2022-07-29T21:21:30.451Z,20.30
2022-07-29T21:23:57.375Z,20.20
2022-07-29T21:26:24.215Z,20.20
2022-07-29T21:28:51.147Z,20.10
2022-07-29T21:31:18.026Z,20.10
2022-07-29T21:33:46.395Z,20.00
2022-07-29T21:36:47.867Z,20.00
2022-07-29T21:39:06.823Z,20.00
2022-07-29T21:41:34.495Z,20.00
2022-07-29T21:44:01.556Z,20.00
2022-07-29T21:46:28.668Z,20.00
2022-07-29T21:48:55.861Z,20.00
2022-07-29T21:51:22.818Z,20.00
2022-07-29T21:53:50.571Z,20.00
2022-07-29T21:56:20.114Z,20.10
2022-07-29T21:58:49.488Z,20.10
2022-07-29T22:01:16.390Z,20.10
2022-07-29T22:03:43.357Z,20.20
2022-07-29T22:06:11.325Z,20.30
2022-07-29T22:08:45.564Z,20.20
2022-07-29T22:11:12.920Z,20.20
2022-07-29T22:13:39.844Z,20.20
2022-07-29T22:16:07.271Z,20.10
2022-07-29T22:18:34.191Z,20.10
2022-07-29T22:21:01.112Z,20.00
2022-07-29T22:23:28.157Z,19.90
2022-07-29T22:25:55.040Z,19.80
2022-07-29T22:28:21.920Z,19.70
2022-07-29T22:30:48.977Z,19.70
2022-07-29T22:33:17.447Z,19.60
2022-07-29T22:35:48.958Z,19.50
2022-07-29T22:38:19.880Z,19.40
2022-07-29T22:40:48.739Z,19.40
2022-07-29T22:43:17.598Z,19.30
2022-07-29T22:45:44.565Z,19.30
2022-07-29T22:48:11.718Z,19.20
2022-07-29T22:50:39.173Z,19.10
2022-07-29T22:53:06.275Z,19.10
2022-07-29T22:55:33.275Z,19.10
2022-07-29T22:58:00.235Z,19.10
2022-07-29T23:00:27.196Z,19.00
2022-07-29T23:02:54.138Z,19.00
2022-07-29T23:05:21.094Z,19.00
2022-07-29T23:07:48.031Z,18.90
2022-07-29T23:10:14.884Z,18.90
2022-07-29T23:12:41.846Z,18.80
2022-07-29T23:15:08.897Z,18.80
2022-07-29T23:17:36.899Z,18.80
2022-07-29T23:20:07.614Z,18.70
2022-07-29T23:22:35.508Z,18.70
2022-07-29T23:25:02.379Z,18.70
2022-07-29T23:27:29.319Z,18.70
2022-07-29T23:29:56.300Z,18.60
2022-07-29T23:32:23.184Z,18.60
2022-07-29T23:34:50.072Z,18.60
2022-07-29T23:37:16.993Z,18.50
2022-07-29T23:39:43.818Z,18.50
2022-07-29T23:42:10.693Z,18.50
2022-07-29T23:44:37.564Z,18.40
2022-07-29T23:47:04.754Z,18.40
2022-07-29T23:49:31.731Z,18.40
2022-07-29T23:51:58.608Z,18.30
2022-07-29T23:54:25.445Z,18.30
2022-07-29T23:56:52.434Z,18.20
2022-07-29T23:59:19.315Z,18.20
